Time;durP1;ratioP1;P1;durP2;ratioP2;P2;SDS_P1;SDS_P2;PMS_P1;PMS_P2;Temp;Humidity;BMP_temperature;BMP_pressure;BME280_temperature;BME280_humidity;BME280_pressure;Samples;Min_cycle;Max_cycle;Signal;HPM_P1;HPM_P2
2024/01/20 00:01:56;;;;;;;20.45;9.57;;;1.50;99.90;;;;;;5026097;28;20045;-66
2024/01/20 00:04:21;;;;;;;15.90;8.75;;;1.50;99.90;;;;;;5030756;28;20052;-65
2024/01/20 00:06:47;;;;;;;14.18;9.32;;;1.60;99.90;;;;;;5035838;28;20386;-64
2024/01/20 00:09:13;;;;;;;19.90;10.02;;;1.60;99.90;;;;;;5042535;28;20029;-64
2024/01/20 00:11:39;;;;;;;15.60;9.43;;;1.60;99.90;;;;;;5035175;28;20037;-64
2024/01/20 00:14:04;;;;;;;15.63;9.70;;;1.50;99.90;;;;;;5048933;28;20420;-64
2024/01/20 00:16:30;;;;;;;16.38;9.15;;;1.60;99.90;;;;;;5040731;28;20063;-64
2024/01/20 00:18:56;;;;;;;20.17;10.40;;;1.50;99.90;;;;;;5025203;28;20214;-64
2024/01/20 00:21:23;;;;;;;18.08;9.63;;;1.50;99.90;;;;;;5041075;28;20050;-63
2024/01/20 00:23:48;;;;;;;20.52;8.82;;;1.40;99.90;;;;;;5033915;28;20069;-64
2024/01/20 00:26:14;;;;;;;16.48;9.50;;;1.60;99.90;;;;;;5038415;28;20199;-64
2024/01/20 00:28:40;;;;;;;15.73;9.52;;;1.50;99.90;;;;;;5039189;28;20090;-63
2024/01/20 00:31:05;;;;;;;16.33;9.50;;;1.50;99.90;;;;;;5039368;28;20059;-64
2024/01/20 00:33:31;;;;;;;17.35;9.63;;;1.50;99.90;;;;;;5036028;28;20063;-64
2024/01/20 00:35:56;;;;;;;17.75;10.45;;;1.40;99.90;;;;;;5037727;28;20053;-65
2024/01/20 00:38:22;;;;;;;20.42;10.75;;;1.40;99.90;;;;;;5041002;28;20048;-65
2024/01/20 00:40:48;;;;;;;19.17;10.57;;;1.30;99.90;;;;;;5029523;28;20037;-64
2024/01/20 00:43:14;;;;;;;18.42;11.88;;;1.30;99.90;;;;;;5043416;28;20041;-64
2024/01/20 00:45:39;;;;;;;19.70;11.68;;;1.30;99.90;;;;;;5045950;28;20052;-64
2024/01/20 00:48:05;;;;;;;22.90;11.88;;;1.30;99.90;;;;;;5045629;28;20484;-64
2024/01/20 00:50:31;;;;;;;20.50;12.10;;;1.30;99.90;;;;;;5043592;28;20147;-65
2024/01/20 00:52:57;;;;;;;22.65;11.77;;;1.30;99.90;;;;;;5049448;28;20044;-64
2024/01/20 00:55:22;;;;;;;19.92;12.05;;;1.20;99.90;;;;;;5043342;28;20373;-64
2024/01/20 00:57:48;;;;;;;17.45;11.88;;;1.30;99.90;;;;;;5029027;28;20037;-63
2024/01/20 01:00:14;;;;;;;20.33;11.48;;;1.30;99.90;;;;;;5038582;28;20039;-65
2024/01/20 01:02:40;;;;;;;22.58;12.13;;;1.30;99.90;;;;;;5032083;28;20041;-66
2024/01/20 01:05:06;;;;;;;22.10;12.00;;;1.30;99.90;;;;;;5040832;28;20070;-66
2024/01/20 01:07:33;;;;;;;16.85;12.35;;;1.30;99.90;;;;;;5033375;28;20041;-63
2024/01/20 01:09:58;;;;;;;21.05;12.52;;;1.30;99.90;;;;;;5034544;28;20041;-64
2024/01/20 01:12:24;;;;;;;22.13;13.40;;;1.20;99.90;;;;;;5033434;28;21100;-65
2024/01/20 01:14:50;;;;;;;19.60;12.73;;;1.20;99.90;;;;;;5036205;28;20037;-64
2024/01/20 01:17:18;;;;;;;23.65;13.80;;;1.10;99.90;;;;;;5037239;28;20041;-64
2024/01/20 01:19:45;;;;;;;18.85;12.48;;;1.10;99.90;;;;;;5034840;28;20033;-65
2024/01/20 01:22:10;;;;;;;25.52;14.80;;;1.10;99.90;;;;;;5033354;28;20037;-64
2024/01/20 01:24:37;;;;;;;24.50;14.65;;;1.00;99.90;;;;;;5016519;28;20041;-65
2024/01/20 01:27:04;;;;;;;21.02;13.93;;;1.00;99.90;;;;;;5033962;28;20037;-64
2024/01/20 01:29:29;;;;;;;21.95;14.38;;;1.00;99.90;;;;;;5036097;28;20486;-65
2024/01/20 01:31:55;;;;;;;28.50;15.23;;;0.90;99.90;;;;;;5034626;28;20055;-64
2024/01/20 01:34:20;;;;;;;25.33;15.10;;;0.90;99.90;;;;;;5030300;28;20433;-66
2024/01/20 01:36:47;;;;;;;25.63;15.10;;;0.80;99.90;;;;;;5029026;28;20048;-64
2024/01/20 01:39:15;;;;;;;24.23;15.40;;;0.70;99.90;;;;;;5030255;28;20595;-64
2024/01/20 01:41:41;;;;;;;21.92;14.63;;;0.70;99.90;;;;;;5031593;28;20044;-64
2024/01/20 01:44:06;;;;;;;24.33;16.05;;;0.70;99.90;;;;;;5030185;28;20037;-63
2024/01/20 01:46:32;;;;;;;25.13;16.45;;;0.70;99.90;;;;;;5038214;28;20425;-64
2024/01/20 01:48:58;;;;;;;26.58;16.67;;;0.60;99.90;;;;;;5043455;28;20048;-64
2024/01/20 01:51:24;;;;;;;26.83;16.95;;;0.60;99.90;;;;;;5049284;28;20091;-64
2024/01/20 01:53:50;;;;;;;27.02;16.33;;;0.60;99.90;;;;;;5045178;28;20029;-63
2024/01/20 01:56:16;;;;;;;25.65;16.40;;;0.60;99.90;;;;;;5029369;28;20099;-64
2024/01/20 01:58:46;;;;;;;24.98;15.73;;;0.60;99.90;;;;;;5026051;28;20075;-65
2024/01/20 02:01:11;;;;;;;26.73;16.73;;;0.60;99.90;;;;;;5036667;28;20033;-64
2024/01/20 02:03:38;;;;;;;29.17;16.67;;;0.50;99.90;;;;;;5032166;28;20049;-64
2024/01/20 02:06:08;;;;;;;24.08;16.65;;;0.50;99.90;;;;;;5035198;28;20457;-66
2024/01/20 02:08:35;;;;;;;25.13;17.05;;;0.50;99.90;;;;;;5047301;28;20053;-64
2024/01/20 02:11:02;;;;;;;28.40;17.67;;;0.50;99.90;;;;;;5031401;28;20041;-64
2024/01/20 02:13:27;;;;;;;30.60;18.20;;;0.50;99.90;;;;;;5041068;28;20370;-64
2024/01/20 02:15:54;;;;;;;29.85;17.05;;;0.50;99.90;;;;;;5031789;28;20047;-64
2024/01/20 02:18:23;;;;;;;30.23;17.42;;;0.50;99.90;;;;;;5025974;28;20068;-65
2024/01/20 02:20:49;;;;;;;26.80;18.13;;;0.50;99.90;;;;;;5014610;28;20444;-64
2024/01/20 02:23:14;;;;;;;35.55;18.40;;;0.50;99.90;;;;;;5023116;28;20389;-64
2024/01/20 02:25:40;;;;;;;30.55;17.77;;;0.60;99.90;;;;;;5031328;28;20033;-64
2024/01/20 02:28:06;;;;;;;38.67;19.50;;;0.50;99.90;;;;;;5031527;28;20040;-66
2024/01/20 02:30:31;;;;;;;29.52;18.33;;;0.60;99.90;;;;;;5029770;28;20097;-64
2024/01/20 02:32:57;;;;;;;34.35;18.55;;;0.60;99.90;;;;;;5023745;28;20041;-65
2024/01/20 02:35:23;;;;;;;31.88;18.77;;;0.60;99.90;;;;;;5037755;28;20397;-65
2024/01/20 02:37:48;;;;;;;31.83;18.88;;;0.50;99.90;;;;;;5041290;28;20049;-63
2024/01/20 02:40:14;;;;;;;29.10;18.40;;;0.50;99.90;;;;;;5035303;28;20116;-65
2024/01/20 02:42:39;;;;;;;34.22;18.20;;;0.60;99.90;;;;;;5028713;28;20037;-65
2024/01/20 02:45:05;;;;;;;38.85;19.23;;;0.50;99.90;;;;;;5028761;28;20099;-64
2024/01/20 02:47:31;;;;;;;38.15;19.20;;;0.50;99.90;;;;;;5038433;28;20041;-64
2024/01/20 02:49:57;;;;;;;34.20;18.60;;;0.50;99.90;;;;;;5041538;28;20106;-64
2024/01/20 02:52:22;;;;;;;33.58;20.27;;;0.50;99.90;;;;;;5029913;28;20141;-63
2024/01/20 02:54:48;;;;;;;39.08;21.00;;;0.40;99.90;;;;;;5038250;28;20098;-65
2024/01/20 02:57:13;;;;;;;34.30;18.77;;;0.50;99.90;;;;;;5033808;28;20091;-64
2024/01/20 02:59:39;;;;;;;29.17;18.70;;;0.50;99.90;;;;;;5013747;28;20095;-65
2024/01/20 03:02:05;;;;;;;37.05;20.73;;;0.50;99.90;;;;;;5028852;28;20478;-64
2024/01/20 03:04:30;;;;;;;35.50;20.08;;;0.50;99.90;;;;;;5030365;28;20052;-64
2024/01/20 03:06:56;;;;;;;37.60;19.38;;;0.60;99.90;;;;;;5043326;28;20041;-64
2024/01/20 03:09:21;;;;;;;32.20;19.98;;;0.60;99.90;;;;;;5025508;28;20037;-65
2024/01/20 03:11:47;;;;;;;33.55;19.58;;;0.60;99.90;;;;;;5013006;28;20128;-65
2024/01/20 03:14:13;;;;;;;38.67;20.88;;;0.60;99.90;;;;;;5030751;28;20083;-64
2024/01/20 03:16:39;;;;;;;31.58;19.25;;;0.60;99.90;;;;;;5028067;28;20465;-64
2024/01/20 03:19:06;;;;;;;34.22;19.00;;;0.60;99.90;;;;;;5036044;28;20102;-63
2024/01/20 03:21:33;;;;;;;35.03;20.08;;;0.60;99.90;;;;;;5012938;28;20056;-63
2024/01/20 03:23:58;;;;;;;35.80;19.27;;;0.60;99.90;;;;;;5037753;28;20449;-63
2024/01/20 03:26:24;;;;;;;37.30;20.20;;;0.50;99.90;;;;;;5034611;28;20076;-66
2024/01/20 03:28:49;;;;;;;38.25;20.38;;;0.60;99.90;;;;;;5016103;28;20079;-63
2024/01/20 03:31:15;;;;;;;34.75;20.00;;;0.60;99.90;;;;;;5045337;28;20156;-64
2024/01/20 03:33:41;;;;;;;34.92;20.08;;;0.50;99.90;;;;;;5034846;28;20484;-64
2024/01/20 03:36:07;;;;;;;35.60;20.60;;;0.50;99.90;;;;;;5043019;28;20045;-63
2024/01/20 03:38:32;;;;;;;33.03;19.40;;;0.40;99.90;;;;;;5047798;28;20072;-65
2024/01/20 03:40:58;;;;;;;36.00;19.92;;;0.40;99.90;;;;;;5040150;28;20399;-65
2024/01/20 03:43:23;;;;;;;36.05;20.85;;;0.40;99.90;;;;;;5035042;28;20056;-64
2024/01/20 03:45:49;;;;;;;36.22;19.67;;;0.40;99.90;;;;;;5037381;28;20037;-63
2024/01/20 03:48:15;;;;;;;33.50;19.67;;;0.40;99.90;;;;;;5036037;28;20166;-63
2024/01/20 03:50:40;;;;;;;36.38;19.98;;;0.40;99.90;;;;;;5018555;28;20139;-64
2024/01/20 03:53:06;;;;;;;35.10;19.48;;;0.30;99.90;;;;;;5041886;28;20650;-64
2024/01/20 03:55:32;;;;;;;38.42;18.85;;;0.30;99.90;;;;;;5045372;28;20049;-64
2024/01/20 03:57:58;;;;;;;37.53;21.08;;;0.30;99.90;;;;;;5045255;28;20065;-65
2024/01/20 04:00:24;;;;;;;35.15;20.17;;;0.20;99.90;;;;;;5050599;28;20030;-64
2024/01/20 04:02:49;;;;;;;30.40;18.88;;;0.20;99.90;;;;;;5017898;28;20055;-63
2024/01/20 04:05:15;;;;;;;36.88;20.38;;;0.20;99.90;;;;;;5039548;28;20044;-64
2024/01/20 04:07:41;;;;;;;33.70;19.40;;;0.20;99.90;;;;;;5037830;28;20052;-65
2024/01/20 04:10:07;;;;;;;38.90;20.27;;;0.30;99.90;;;;;;5032834;28;20505;-63
2024/01/20 04:12:34;;;;;;;38.72;20.35;;;0.40;99.90;;;;;;5031459;28;20134;-64
2024/01/20 04:15:00;;;;;;;40.20;19.02;;;0.30;99.90;;;;;;5044951;28;20422;-65
2024/01/20 04:17:25;;;;;;;35.55;19.10;;;0.30;99.90;;;;;;5041996;28;20045;-65
2024/01/20 04:19:51;;;;;;;32.60;18.60;;;0.30;99.90;;;;;;5016388;28;20044;-63
2024/01/20 04:22:17;;;;;;;36.17;19.25;;;0.30;99.90;;;;;;5045973;28;20045;-63
2024/01/20 04:24:42;;;;;;;36.00;18.42;;;0.30;99.90;;;;;;5038574;28;20033;-64
2024/01/20 04:27:08;;;;;;;37.90;18.80;;;0.40;99.90;;;;;;5038898;28;20430;-64
2024/01/20 04:29:33;;;;;;;29.15;17.42;;;0.30;99.90;;;;;;5048633;28;20048;-64
2024/01/20 04:31:59;;;;;;;38.75;17.65;;;0.30;99.90;;;;;;5018033;28;20224;-64
2024/01/20 04:34:25;;;;;;;36.70;18.73;;;0.30;99.90;;;;;;5038598;28;20044;-63
2024/01/20 04:36:50;;;;;;;34.72;19.55;;;0.40;99.90;;;;;;5020210;28;20119;-65
2024/01/20 04:39:16;;;;;;;40.53;19.42;;;0.30;99.90;;;;;;5036124;28;20069;-64
2024/01/20 04:41:42;;;;;;;41.13;19.77;;;0.30;99.90;;;;;;5042761;28;20044;-63
2024/01/20 04:44:07;;;;;;;38.58;19.73;;;0.30;99.90;;;;;;5026728;28;20503;-64
2024/01/20 04:46:33;;;;;;;36.42;20.48;;;0.20;99.90;;;;;;5048968;28;20132;-64
2024/01/20 04:48:58;;;;;;;33.38;18.38;;;0.20;99.90;;;;;;5041564;28;20045;-64
2024/01/20 04:51:24;;;;;;;35.33;18.77;;;0.20;99.90;;;;;;5029918;28;20046;-64
2024/01/20 04:53:50;;;;;;;37.60;18.55;;;0.20;99.90;;;;;;5039281;28;20080;-65
2024/01/20 04:56:19;;;;;;;35.03;19.20;;;0.10;99.90;;;;;;5033984;28;20043;-64
2024/01/20 04:58:46;;;;;;;35.05;19.20;;;0.10;99.90;;;;;;5036344;28;20481;-64
2024/01/20 05:01:12;;;;;;;42.05;21.05;;;0.10;99.90;;;;;;5044511;28;20091;-65
2024/01/20 05:03:37;;;;;;;36.50;19.52;;;0.10;99.90;;;;;;5047102;28;20041;-64
2024/01/20 05:06:04;;;;;;;38.58;20.17;;;0.00;99.90;;;;;;5045493;28;20037;-65
2024/01/20 05:08:30;;;;;;;40.47;19.95;;;0.00;99.90;;;;;;5038139;28;20098;-64
2024/01/20 05:10:55;;;;;;;38.30;20.67;;;0.00;99.90;;;;;;5024034;28;20045;-63
2024/01/20 05:13:21;;;;;;;42.75;21.42;;;0.00;99.90;;;;;;5047757;28;20040;-66
2024/01/20 05:15:47;;;;;;;44.97;20.05;;;0.00;99.90;;;;;;5033283;28;20045;-64
2024/01/20 05:18:12;;;;;;;40.95;19.38;;;0.00;99.90;;;;;;5038515;28;20036;-65
2024/01/20 05:20:38;;;;;;;39.38;18.23;;;0.00;99.90;;;;;;5032498;28;20037;-64
2024/01/20 05:23:03;;;;;;;47.35;21.00;;;0.00;99.90;;;;;;5047014;28;20384;-65
2024/01/20 05:25:29;;;;;;;39.90;20.00;;;0.00;99.90;;;;;;5036618;28;20140;-65
2024/01/20 05:27:55;;;;;;;43.50;20.83;;;-0.10;99.90;;;;;;5029948;28;20038;-65
2024/01/20 05:30:21;;;;;;;40.67;20.65;;;-0.10;99.90;;;;;;5035337;28;20457;-64
2024/01/20 05:32:47;;;;;;;45.80;19.83;;;-0.10;99.90;;;;;;5015836;28;20122;-63
2024/01/20 05:35:13;;;;;;;50.10;20.35;;;-0.20;99.90;;;;;;5031928;28;20064;-63
2024/01/20 05:37:39;;;;;;;41.63;19.77;;;-0.20;99.90;;;;;;5037733;28;20044;-64
2024/01/20 05:40:05;;;;;;;46.47;19.55;;;-0.30;99.90;;;;;;5040328;28;20045;-64
2024/01/20 05:42:31;;;;;;;44.53;20.25;;;-0.30;99.90;;;;;;5038237;28;20091;-64
2024/01/20 05:44:57;;;;;;;46.97;22.23;;;-0.30;99.90;;;;;;5015416;28;20044;-63
2024/01/20 05:47:23;;;;;;;47.72;21.00;;;-0.30;99.90;;;;;;5038128;28;20124;-65
2024/01/20 05:49:49;;;;;;;48.50;20.25;;;-0.30;99.90;;;;;;5038515;28;20147;-64
2024/01/20 05:52:14;;;;;;;47.33;20.80;;;-0.30;99.90;;;;;;5022009;28;20052;-63
2024/01/20 05:54:40;;;;;;;43.55;19.52;;;-0.40;99.90;;;;;;5041031;28;20041;-64
2024/01/20 05:57:07;;;;;;;49.90;19.90;;;-0.40;99.90;;;;;;5024492;28;20139;-63
2024/01/20 05:59:32;;;;;;;42.47;19.00;;;-0.30;99.90;;;;;;5032800;28;20036;-64
2024/01/20 06:01:58;;;;;;;43.13;19.92;;;-0.30;99.90;;;;;;5035724;28;20133;-63
2024/01/20 06:04:23;;;;;;;47.22;22.15;;;-0.30;99.90;;;;;;5031521;28;20307;-65
2024/01/20 06:06:49;;;;;;;52.25;20.20;;;-0.30;99.90;;;;;;5039921;28;20123;-65
2024/01/20 06:09:15;;;;;;;51.05;20.08;;;-0.30;99.90;;;;;;5037362;28;20096;-64
2024/01/20 06:11:41;;;;;;;49.30;20.55;;;-0.40;99.90;;;;;;5011975;28;20061;-63
2024/01/20 06:14:07;;;;;;;46.70;20.33;;;-0.40;99.90;;;;;;5035280;28;20119;-64
2024/01/20 06:16:36;;;;;;;51.38;20.63;;;-0.40;99.90;;;;;;5036939;28;20048;-64
2024/01/20 06:19:01;;;;;;;51.05;20.98;;;-0.40;99.90;;;;;;5039712;28;20041;-63
2024/01/20 06:21:27;;;;;;;45.10;18.35;;;-0.40;99.90;;;;;;5038598;28;20041;-65
2024/01/20 06:23:53;;;;;;;49.22;20.23;;;-0.40;99.90;;;;;;5040435;28;20569;-64
2024/01/20 06:26:18;;;;;;;51.17;21.27;;;-0.50;99.90;;;;;;5027205;28;20052;-65
2024/01/20 06:28:44;;;;;;;50.25;20.00;;;-0.50;99.90;;;;;;5029507;28;20040;-64
2024/01/20 06:31:21;;;;;;;54.70;20.65;;;-0.40;99.90;;;;;;5043218;28;20060;-65
2024/01/20 06:33:47;;;;;;;43.60;20.05;;;-0.50;99.90;;;;;;5031583;28;20490;-65
2024/01/20 06:36:13;;;;;;;50.75;20.17;;;-0.50;99.90;;;;;;5039230;28;20041;-64
2024/01/20 06:38:38;;;;;;;50.33;20.65;;;-0.50;99.90;;;;;;5040646;28;20110;-64
2024/01/20 06:41:04;;;;;;;53.50;20.55;;;-0.50;99.90;;;;;;5040307;28;20029;-64
2024/01/20 06:43:30;;;;;;;49.75;19.25;;;-0.50;99.90;;;;;;5030804;28;20084;-64
2024/01/20 06:45:55;;;;;;;50.25;19.45;;;-0.50;99.90;;;;;;5041630;28;20033;-64
2024/01/20 06:48:21;;;;;;;48.83;19.88;;;-0.60;99.90;;;;;;5038111;28;20041;-63
2024/01/20 06:50:47;;;;;;;44.40;19.63;;;-0.50;99.90;;;;;;5022451;28;20090;-64
2024/01/20 06:53:13;;;;;;;47.35;19.98;;;-0.40;99.90;;;;;;5032193;28;20525;-63
2024/01/20 06:55:38;;;;;;;43.65;18.05;;;-0.50;99.90;;;;;;5035557;28;20049;-63
2024/01/20 06:58:04;;;;;;;43.17;19.55;;;-0.50;99.90;;;;;;5043564;28;20033;-63
2024/01/20 07:00:31;;;;;;;46.17;17.98;;;-0.50;99.90;;;;;;5038934;28;20870;-63
2024/01/20 07:02:58;;;;;;;46.42;17.88;;;-0.40;99.90;;;;;;5039641;28;20094;-64
2024/01/20 07:05:24;;;;;;;46.20;19.23;;;-0.30;99.90;;;;;;5033641;28;20041;-63
2024/01/20 07:07:49;;;;;;;49.58;20.45;;;-0.30;99.90;;;;;;5041803;28;20051;-64
2024/01/20 07:10:15;;;;;;;47.13;20.40;;;-0.30;99.90;;;;;;5040676;28;20080;-63
2024/01/20 07:12:41;;;;;;;47.10;19.00;;;-0.30;99.90;;;;;;5042550;28;20530;-63
2024/01/20 07:15:07;;;;;;;43.63;19.40;;;-0.20;99.90;;;;;;5024740;28;20036;-65
2024/01/20 07:17:33;;;;;;;45.22;19.08;;;-0.30;99.90;;;;;;5052327;28;20102;-64
2024/01/20 07:19:59;;;;;;;46.05;19.60;;;-0.30;99.90;;;;;;5020728;28;20037;-64
2024/01/20 07:22:25;;;;;;;47.10;19.15;;;-0.30;99.90;;;;;;5052491;28;20048;-64
2024/01/20 07:24:50;;;;;;;44.55;19.52;;;-0.30;99.90;;;;;;5051857;28;20044;-65
2024/01/20 07:27:16;;;;;;;46.10;20.42;;;-0.30;99.90;;;;;;5050763;28;20057;-64
2024/01/20 07:29:41;;;;;;;46.05;18.98;;;-0.40;99.90;;;;;;5042208;28;20181;-64
2024/01/20 07:32:07;;;;;;;48.42;19.77;;;-0.40;99.90;;;;;;5031355;28;20636;-64
2024/01/20 07:34:33;;;;;;;55.75;20.58;;;-0.40;99.90;;;;;;5032354;28;20062;-63
2024/01/20 07:36:59;;;;;;;44.33;18.15;;;-0.40;99.90;;;;;;5031926;28;20046;-65
2024/01/20 07:39:24;;;;;;;45.70;18.77;;;-0.40;99.90;;;;;;5041577;28;20426;-63
2024/01/20 07:41:50;;;;;;;40.47;17.15;;;-0.40;99.90;;;;;;5040699;28;20469;-64
2024/01/20 07:44:16;;;;;;;47.90;19.20;;;-0.40;99.90;;;;;;5032892;28;20072;-63
2024/01/20 07:46:41;;;;;;;51.80;20.77;;;-0.40;99.90;;;;;;5039367;28;20068;-63
2024/01/20 07:49:07;;;;;;;48.55;19.92;;;-0.40;99.90;;;;;;5048827;28;20041;-65
2024/01/20 07:51:33;;;;;;;47.22;19.13;;;-0.50;99.90;;;;;;5044723;28;20087;-64
2024/01/20 07:53:58;;;;;;;46.20;18.60;;;-0.50;99.90;;;;;;5041771;28;20049;-65
2024/01/20 07:56:24;;;;;;;50.45;19.38;;;-0.50;99.90;;;;;;5032008;28;20037;-64
2024/01/20 07:58:50;;;;;;;52.28;21.10;;;-0.50;99.90;;;;;;5042687;28;20079;-65
2024/01/20 08:01:17;;;;;;;51.92;20.42;;;-0.40;99.90;;;;;;5039162;28;20037;-64
2024/01/20 08:03:43;;;;;;;53.95;21.67;;;-0.40;99.90;;;;;;5041448;28;20048;-63
2024/01/20 08:06:08;;;;;;;46.55;19.58;;;-0.40;99.90;;;;;;5035358;28;20048;-63
2024/01/20 08:08:34;;;;;;;55.80;21.20;;;-0.30;99.90;;;;;;5032696;28;20080;-63
2024/01/20 08:11:00;;;;;;;48.25;18.83;;;-0.30;99.90;;;;;;5032643;28;20069;-64
2024/01/20 08:13:26;;;;;;;44.45;19.50;;;-0.30;99.90;;;;;;5039841;28;20033;-64
2024/01/20 08:15:52;;;;;;;52.55;20.65;;;-0.20;99.90;;;;;;5031956;28;20119;-64
2024/01/20 08:18:18;;;;;;;48.83;19.63;;;-0.10;99.90;;;;;;5017682;28;20912;-64
2024/01/20 08:20:43;;;;;;;45.22;19.73;;;-0.10;99.90;;;;;;5038524;28;20068;-64
2024/01/20 08:23:09;;;;;;;50.13;20.27;;;-0.10;99.90;;;;;;5051834;28;20091;-64
2024/01/20 08:25:35;;;;;;;53.42;18.88;;;0.00;99.90;;;;;;5023584;28;20040;-65
2024/01/20 08:28:00;;;;;;;49.63;19.70;;;0.10;99.90;;;;;;5036743;28;20369;-65
2024/01/20 08:30:26;;;;;;;49.08;20.40;;;0.10;99.90;;;;;;5041894;28;20498;-64
2024/01/20 08:32:51;;;;;;;45.63;19.05;;;0.10;99.90;;;;;;5034791;28;20472;-64
2024/01/20 08:35:17;;;;;;;49.80;19.20;;;0.10;99.90;;;;;;5022299;28;20036;-64
2024/01/20 08:37:43;;;;;;;47.53;18.60;;;0.20;99.90;;;;;;5044385;28;20053;-64
2024/01/20 08:40:08;;;;;;;44.10;18.13;;;0.20;99.90;;;;;;5035625;28;20141;-64
2024/01/20 08:42:34;;;;;;;48.70;19.42;;;0.20;99.90;;;;;;5046212;28;20118;-63
2024/01/20 08:45:00;;;;;;;45.50;19.33;;;0.30;99.90;;;;;;5050813;28;20051;-63
2024/01/20 08:47:25;;;;;;;45.75;18.23;;;0.30;99.90;;;;;;5050030;28;20048;-65
2024/01/20 08:49:53;;;;;;;41.95;18.20;;;0.30;99.90;;;;;;5029646;28;20082;-65
2024/01/20 08:52:19;;;;;;;41.55;18.73;;;0.40;99.90;;;;;;5037561;28;20355;-63
2024/01/20 08:54:45;;;;;;;42.42;18.55;;;0.40;99.90;;;;;;5039456;28;20040;-64
2024/01/20 08:57:10;;;;;;;43.17;17.30;;;0.40;99.90;;;;;;5049423;28;20527;-65
2024/01/20 08:59:36;;;;;;;45.22;18.35;;;0.50;99.90;;;;;;5050187;28;20060;-64
2024/01/20 09:02:03;;;;;;;46.92;19.00;;;0.60;99.90;;;;;;5024032;28;20134;-65
2024/01/20 09:04:29;;;;;;;43.05;17.27;;;0.60;99.90;;;;;;5030464;28;20037;-64
2024/01/20 09:06:55;;;;;;;40.88;17.90;;;0.70;99.90;;;;;;5017897;28;20033;-64
2024/01/20 09:09:21;;;;;;;39.33;16.10;;;0.70;99.90;;;;;;5032834;28;20114;-64
2024/01/20 09:11:47;;;;;;;48.80;18.38;;;0.80;99.90;;;;;;5041344;28;20192;-63
2024/01/20 09:14:13;;;;;;;42.20;18.55;;;0.80;99.90;;;;;;5027576;28;20590;-64
2024/01/20 09:16:39;;;;;;;42.83;18.52;;;0.80;99.90;;;;;;5044960;28;20045;-64
2024/01/20 09:19:04;;;;;;;40.60;17.90;;;0.80;99.90;;;;;;5029971;28;20124;-64
2024/01/20 09:21:30;;;;;;;38.63;17.15;;;0.80;99.90;;;;;;5030353;28;20045;-64
2024/01/20 09:23:56;;;;;;;38.08;18.40;;;0.80;99.90;;;;;;5041921;28;20040;-66
2024/01/20 09:26:21;;;;;;;41.40;17.65;;;0.80;99.90;;;;;;5029445;28;20048;-65
2024/01/20 09:28:47;;;;;;;42.47;18.25;;;0.80;99.90;;;;;;5032772;28;20117;-64
2024/01/20 09:31:12;;;;;;;40.30;17.92;;;0.80;99.90;;;;;;5039991;28;20053;-65
2024/01/20 09:33:38;;;;;;;42.65;16.73;;;0.80;99.90;;;;;;5033555;28;20598;-64
2024/01/20 09:36:04;;;;;;;34.75;15.95;;;0.80;99.90;;;;;;5045989;28;20449;-65
2024/01/20 09:38:30;;;;;;;45.50;17.65;;;0.90;99.90;;;;;;5045496;28;20032;-64
2024/01/20 09:40:58;;;;;;;38.63;16.13;;;0.90;99.90;;;;;;5034200;28;20038;-64
2024/01/20 09:43:25;;;;;;;43.75;16.67;;;0.90;99.90;;;;;;5029439;28;20041;-64
2024/01/20 09:45:52;;;;;;;41.35;17.80;;;0.90;99.90;;;;;;5046758;28;20052;-65
2024/01/20 09:48:18;;;;;;;42.25;17.83;;;1.00;99.90;;;;;;5031862;28;20079;-66
2024/01/20 09:50:44;;;;;;;44.58;16.92;;;1.10;99.90;;;;;;5041020;28;20046;-66
2024/01/20 09:53:15;;;;;;;44.63;17.23;;;1.10;99.90;;;;;;5012703;28;20091;-64
2024/01/20 09:55:45;;;;;;;40.05;15.82;;;1.20;99.90;;;;;;5035537;28;20083;-65
2024/01/20 09:58:12;;;;;;;34.80;15.25;;;1.20;99.90;;;;;;5028589;28;20042;-64
2024/01/20 10:00:40;;;;;;;42.22;16.30;;;1.20;99.90;;;;;;5028466;28;20099;-64
2024/01/20 10:03:08;;;;;;;39.53;15.73;;;1.20;99.90;;;;;;5035363;28;20094;-64
2024/01/20 10:05:34;;;;;;;37.72;16.38;;;1.20;99.90;;;;;;5036457;28;20473;-64
2024/01/20 10:08:00;;;;;;;40.97;16.25;;;1.30;99.90;;;;;;5043036;28;20038;-64
2024/01/20 10:10:26;;;;;;;40.60;16.42;;;1.30;99.90;;;;;;5016070;28;20037;-66
2024/01/20 10:12:55;;;;;;;44.15;17.23;;;1.30;99.90;;;;;;5048831;28;20369;-64
2024/01/20 10:15:22;;;;;;;35.17;14.90;;;1.30;99.90;;;;;;5024744;28;20110;-64
2024/01/20 10:17:48;;;;;;;39.85;16.20;;;1.30;99.90;;;;;;5041387;28;20040;-64
2024/01/20 10:20:31;;;;;;;36.75;16.42;;;1.30;99.90;;;;;;5047905;28;20029;-64
2024/01/20 10:23:00;;;;;;;36.60;14.85;;;1.30;99.90;;;;;;5034665;28;20041;-64
2024/01/20 10:25:26;;;;;;;38.67;15.60;;;1.40;99.90;;;;;;5033126;28;20486;-63
2024/01/20 10:27:52;;;;;;;38.08;17.27;;;1.40;99.90;;;;;;5028753;28;20060;-63
2024/01/20 10:30:20;;;;;;;34.17;14.00;;;1.50;99.90;;;;;;5028345;28;20341;-64
2024/01/20 10:32:47;;;;;;;40.35;16.75;;;1.40;99.90;;;;;;5033312;28;20079;-63
2024/01/20 10:35:13;;;;;;;36.55;15.63;;;1.50;99.90;;;;;;5047591;28;20443;-62
2024/01/20 10:37:40;;;;;;;44.70;17.00;;;1.60;99.90;;;;;;5040097;28;20094;-64
2024/01/20 10:40:11;;;;;;;38.08;15.45;;;1.60;99.90;;;;;;5051872;28;20048;-63
2024/01/20 10:42:45;;;;;;;45.20;16.50;;;1.60;99.90;;;;;;5045607;28;20068;-65
2024/01/20 10:45:17;;;;;;;34.58;15.23;;;1.60;99.90;;;;;;5018063;28;20045;-63
2024/01/20 10:47:51;;;;;;;38.17;15.75;;;1.70;99.90;;;;;;5034992;28;20049;-63
2024/01/20 10:50:17;;;;;;;40.80;14.80;;;1.70;99.90;;;;;;5053386;28;20043;-64
2024/01/20 10:52:45;;;;;;;37.88;16.30;;;1.80;99.90;;;;;;5053316;28;20033;-64
2024/01/20 10:55:12;;;;;;;31.73;14.38;;;1.70;99.90;;;;;;5035715;28;20124;-64
2024/01/20 10:57:37;;;;;;;32.97;15.48;;;1.80;99.90;;;;;;5015353;28;20050;-65
2024/01/20 11:00:07;;;;;;;32.20;14.98;;;1.80;99.90;;;;;;5032583;28;20478;-63
2024/01/20 11:02:34;;;;;;;36.08;15.13;;;1.80;99.90;;;;;;5031897;28;20092;-62
2024/01/20 11:04:59;;;;;;;36.13;15.57;;;1.80;99.90;;;;;;5032623;28;20067;-64
2024/01/20 11:07:29;;;;;;;31.55;14.10;;;1.80;99.90;;;;;;5041546;28;20046;-64
2024/01/20 11:10:00;;;;;;;42.33;15.70;;;1.80;99.90;;;;;;5050501;28;20040;-64
2024/01/20 11:12:28;;;;;;;38.22;15.43;;;1.80;99.90;;;;;;5038084;28;20040;-64
2024/01/20 11:14:56;;;;;;;31.83;13.82;;;1.90;99.90;;;;;;5044182;28;20461;-63
2024/01/20 11:17:23;;;;;;;30.08;13.00;;;2.00;99.90;;;;;;5039078;28;20370;-64
2024/01/20 11:19:50;;;;;;;33.78;14.23;;;2.00;99.90;;;;;;5032624;28;20029;-65
2024/01/20 11:22:32;;;;;;;33.20;12.70;;;1.90;99.90;;;;;;5034002;28;20049;-63
2024/01/20 11:25:05;;;;;;;32.88;13.57;;;1.90;99.90;;;;;;5031631;28;20049;-65
2024/01/20 11:27:42;;;;;;;31.30;13.38;;;1.90;99.90;;;;;;5016868;28;20438;-63
2024/01/20 11:30:08;;;;;;;35.53;14.02;;;2.00;99.90;;;;;;5031237;28;20143;-64
2024/01/20 11:32:34;;;;;;;33.58;14.48;;;1.90;99.90;;;;;;5048939;28;20056;-64
2024/01/20 11:35:03;;;;;;;33.75;14.38;;;2.00;99.90;;;;;;5035946;28;20064;-64
2024/01/20 11:37:30;;;;;;;32.28;13.30;;;2.00;99.90;;;;;;5047308;28;20068;-63
2024/01/20 11:40:04;;;;;;;33.97;13.73;;;2.10;99.90;;;;;;5038848;28;20041;-64
2024/01/20 11:42:32;;;;;;;28.33;14.10;;;2.10;99.90;;;;;;5045350;28;20041;-65
2024/01/20 11:44:57;;;;;;;37.08;13.68;;;2.10;99.90;;;;;;5035852;28;20042;-66
2024/01/20 11:47:23;;;;;;;32.78;14.40;;;2.10;99.90;;;;;;5014417;28;20037;-64
2024/01/20 11:49:49;;;;;;;30.92;13.77;;;2.00;99.90;;;;;;5015547;28;20042;-63
2024/01/20 11:52:14;;;;;;;31.90;13.25;;;2.10;99.90;;;;;;5043521;28;20041;-64
2024/01/20 11:54:40;;;;;;;35.08;13.23;;;2.00;99.90;;;;;;5044962;28;20033;-63
2024/01/20 11:57:06;;;;;;;34.90;14.88;;;2.00;99.90;;;;;;5037185;28;20038;-63
2024/01/20 11:59:31;;;;;;;32.08;13.85;;;2.10;99.90;;;;;;5042606;28;20040;-64
2024/01/20 12:01:57;;;;;;;31.33;14.05;;;2.10;99.90;;;;;;5036321;28;20037;-64
2024/01/20 12:04:22;;;;;;;29.63;13.27;;;2.10;99.90;;;;;;5037274;28;20168;-64
2024/01/20 12:06:48;;;;;;;29.45;13.80;;;2.10;99.90;;;;;;5033246;28;20052;-64
2024/01/20 12:09:15;;;;;;;30.50;12.57;;;2.10;99.90;;;;;;5036460;28;20064;-65
2024/01/20 12:11:41;;;;;;;33.67;14.15;;;2.20;99.90;;;;;;5035065;28;20045;-64
2024/01/20 12:14:08;;;;;;;31.90;14.02;;;2.10;99.90;;;;;;5049745;28;20068;-64
2024/01/20 12:16:34;;;;;;;34.20;13.90;;;2.10;99.90;;;;;;5024223;28;20044;-64
2024/01/20 12:19:00;;;;;;;31.40;14.38;;;2.10;99.90;;;;;;5043035;28;20430;-65
2024/01/20 12:21:27;;;;;;;29.85;12.85;;;2.10;99.90;;;;;;5031234;28;20041;-64
2024/01/20 12:23:53;;;;;;;28.25;13.07;;;2.10;99.90;;;;;;5032570;28;20517;-65
2024/01/20 12:26:19;;;;;;;37.22;14.48;;;2.10;99.90;;;;;;5038989;28;20048;-64
2024/01/20 12:28:46;;;;;;;34.00;13.77;;;2.20;99.90;;;;;;5039451;28;20045;-64
2024/01/20 12:31:12;;;;;;;37.85;14.32;;;2.20;99.90;;;;;;5031363;28;20150;-64